Hauptseite
METAR-TAF:

METAR-TAF

Flughäfen :

Flughafen Rouen

Rouen, Frankreich

Breite: 49-23N, Länge: 001-11E, Höhe: 157 m

Beobachtung

Neuester Wetterbericht von vor 26 Minuten, um 10:00 UTC
Wind 9 kt aus Nordost, variierte zwischen Nord und Ost/Nordost
Temperatur 23°C
Luftfeuchtigkeit 41%
Luftdruck 1034 hPa
Sichtweite 10 km oder mehr
keine Wolken unter 1500 m und keine Kumulonimbus oder Gewitterwolken

METAR: LFOP 271000Z AUTO 04009KT 360V070 CAVOK 23/09 Q1034 NOSIG

Zeit: 12:26 (10:26 UTC)

Prognose

Neuester Wetterbericht von vor 5 Stunden und 26 Minuten, um 05:00 UTC
Gültige Prognose vom 27 um 06 UTC bis 28 um 06 UTC
Wind 6 kt aus Nord/Nordost
Sichtweite 10 km oder mehr
keine Wolken unter 1500 m und keine Kumulonimbus oder Gewitterwolken

TAF: LFOP 270500Z 2706/2806 03006KT CAVOK

Wetterbeobachtungen und Prognosen von mehr als 4000 Flughäfen (METAR und TAF Bericht).

Die verfügbaren Stationen werden durch gelbe und rote Markierungen auf der Karte dargestellt.

Führen Sie die Maus auf sie, um den Namen der Station zu sehen.

Darauf klicken, um die Beobachtung von Wetterbeobachtungen und Prognosen zu sehen.

Um die Karte zu ändern : klicken Sie auf den grünen Tasten mit einem schwarzen Kreuz Zum Vergrößern, auf den grünen Button mit einem Gedankenstrich zu verkleinern, oder auf die grünen Pfeile für benachbarte Karten.


METAR-TAF: